Other Surface Observations
Issued by NWS Missoula, MT

Home | Current Version | Previous Version | Text Only | Print | Product List | Glossary On
Versions: 1 2 3 4 5 6 7 8 9 10 11 12 13 14 15 16 17 18 19 20 21 22 23 24 25 26 27 28 29 30 31 32 33 34 35 36 37 38 39 40 41 42 43 44 45 46 47 48 49 50
000
SXUS55 KMSO 241014
OSOMSO
MONTANA AWOS SUMMARY
NATIONAL WEATHER SERVICE MISSOULA MT
313 AM MST THU APR 24 2014

Montana AWOS Reports

PLAINS      |KS34 240955Z AUTO 00000KT 25SM 03/00 A2987 RMK AO1 T00330000
SCOBEY      |K9S2 240955Z AUTO 26005KT 02/M06 A2967 RMK AO1 T00221055




USA.gov is the U.S. government's official web portal to all federal, state and local government web resources and services.